createdAt,value
2023-04-02T00:00:45.083Z,1004.72
2023-04-02T00:01:45.134Z,1004.77
2023-04-02T00:02:45.115Z,1004.81
2023-04-02T00:03:45.228Z,1004.83
2023-04-02T00:04:45.071Z,1004.85
2023-04-02T00:05:45.064Z,1004.91
2023-04-02T00:06:45.309Z,1004.91
2023-04-02T00:07:45.042Z,1004.90
2023-04-02T00:08:45.052Z,1004.94
2023-04-02T00:09:45.009Z,1004.96
2023-04-02T00:10:45.009Z,1004.94
2023-04-02T00:11:45.025Z,1005.00
2023-04-02T00:12:44.987Z,1005.02
2023-04-02T00:13:44.969Z,1005.04
2023-04-02T00:14:45.040Z,1005.06
2023-04-02T00:15:44.945Z,1005.09
2023-04-02T00:16:45.123Z,1005.14
2023-04-02T00:17:44.951Z,1005.16
2023-04-02T00:18:44.914Z,1005.18
2023-04-02T00:19:44.930Z,1005.19
2023-04-02T00:20:44.883Z,1005.26
2023-04-02T00:21:44.907Z,1005.31
2023-04-02T00:22:44.884Z,1005.31
2023-04-02T00:23:44.878Z,1005.33
2023-04-02T00:24:44.875Z,1005.31
2023-04-02T00:25:44.885Z,1005.35
2023-04-02T00:26:44.861Z,1005.40
2023-04-02T00:27:44.847Z,1005.36
2023-04-02T00:28:44.816Z,1005.39
2023-04-02T00:29:44.828Z,1005.47
2023-04-02T00:30:44.788Z,1005.41
2023-04-02T00:31:44.854Z,1005.43
2023-04-02T00:32:44.788Z,1005.43
2023-04-02T00:33:44.824Z,1005.48
2023-04-02T00:34:44.812Z,1005.51
2023-04-02T00:35:44.868Z,1005.55
2023-04-02T00:36:44.800Z,1005.52
2023-04-02T00:37:44.748Z,1005.57
2023-04-02T00:38:46.067Z,1005.56
2023-04-02T00:39:44.699Z,1005.60
2023-04-02T00:40:44.714Z,1005.62
2023-04-02T00:41:44.714Z,1005.65
2023-04-02T00:42:44.682Z,1005.66
2023-04-02T00:43:44.647Z,1005.79
2023-04-02T00:44:44.706Z,1005.74
2023-04-02T00:45:44.688Z,1005.74
2023-04-02T00:46:44.645Z,1005.73
2023-04-02T00:47:44.643Z,1005.74
2023-04-02T00:48:44.612Z,1005.77
2023-04-02T00:49:44.642Z,1005.79
2023-04-02T00:50:44.573Z,1005.81
2023-04-02T00:51:44.680Z,1005.79
2023-04-02T00:52:44.614Z,1005.81
2023-04-02T00:53:44.555Z,1005.84
2023-04-02T00:54:44.622Z,1005.88
2023-04-02T00:55:44.546Z,1005.88
2023-04-02T00:56:44.548Z,1005.91
2023-04-02T00:57:44.523Z,1005.96
2023-04-02T00:58:44.534Z,1005.96
2023-04-02T00:59:44.527Z,1006.03
2023-04-02T01:00:44.466Z,1006.03
2023-04-02T01:01:44.507Z,1006.04
2023-04-02T01:02:44.598Z,1006.08
2023-04-02T01:03:44.638Z,1006.05
2023-04-02T01:04:44.444Z,1006.10
2023-04-02T01:05:44.455Z,1006.13
2023-04-02T01:06:44.433Z,1006.10
2023-04-02T01:07:44.441Z,1006.12
2023-04-02T01:08:44.415Z,1006.14
2023-04-02T01:09:44.452Z,1006.14
2023-04-02T01:10:44.420Z,1006.15
2023-04-02T01:11:44.410Z,1006.17
2023-04-02T01:12:44.379Z,1006.15
2023-04-02T01:13:44.399Z,1006.21
2023-04-02T01:14:44.525Z,1006.22
2023-04-02T01:15:44.373Z,1006.21
2023-04-02T01:16:44.340Z,1006.22
2023-04-02T01:17:45.108Z,1006.24
2023-04-02T01:18:44.333Z,1006.22
2023-04-02T01:19:44.312Z,1006.25
2023-04-02T01:20:44.278Z,1006.29
2023-04-02T01:21:44.275Z,1006.30
2023-04-02T01:22:44.262Z,1006.32
2023-04-02T01:23:44.294Z,1006.37
2023-04-02T01:24:44.302Z,1006.32
2023-04-02T01:25:44.218Z,1006.34
2023-04-02T01:26:44.266Z,1006.34
2023-04-02T01:27:44.224Z,1006.38
2023-04-02T01:28:44.182Z,1006.37
2023-04-02T01:29:44.183Z,1006.40
2023-04-02T01:30:44.204Z,1006.41
2023-04-02T01:31:44.266Z,1006.43
2023-04-02T01:32:44.300Z,1006.49
2023-04-02T01:33:44.156Z,1006.48
2023-04-02T01:34:44.112Z,1006.53
2023-04-02T01:35:44.248Z,1006.53
2023-04-02T01:36:44.156Z,1006.55
2023-04-02T01:37:44.112Z,1006.57
2023-04-02T01:38:44.304Z,1006.58
2023-04-02T01:39:44.139Z,1006.68
2023-04-02T01:40:44.136Z,1006.61
2023-04-02T01:41:44.081Z,1006.67
2023-04-02T01:42:44.098Z,1006.61
2023-04-02T01:43:44.086Z,1006.65
2023-04-02T01:44:44.079Z,1006.69
2023-04-02T01:45:44.044Z,1006.69
2023-04-02T01:46:44.035Z,1006.74
2023-04-02T01:47:44.096Z,1006.77
2023-04-02T01:48:44.013Z,1006.75
2023-04-02T01:49:44.147Z,1006.84
2023-04-02T01:50:43.961Z,1006.81
2023-04-02T01:51:44.758Z,1006.85
2023-04-02T01:52:43.987Z,1006.83
2023-04-02T01:53:43.986Z,1006.86
2023-04-02T01:54:43.911Z,1006.89
2023-04-02T01:55:43.960Z,1006.93
2023-04-02T01:56:43.955Z,1006.97
2023-04-02T01:57:43.962Z,1006.96
2023-04-02T01:58:43.886Z,1006.97
2023-04-02T01:59:44.259Z,1006.99
2023-04-02T02:00:43.882Z,1006.97
2023-04-02T02:01:43.960Z,1007.03
2023-04-02T02:02:43.986Z,1007.02
2023-04-02T02:03:43.894Z,1007.02
2023-04-02T02:04:43.813Z,1007.06
2023-04-02T02:05:43.910Z,1007.12
2023-04-02T02:06:43.876Z,1007.10
2023-04-02T02:07:43.919Z,1007.12
2023-04-02T02:08:43.801Z,1007.15
2023-04-02T02:09:43.815Z,1007.07
2023-04-02T02:10:43.760Z,1007.13
2023-04-02T02:11:43.765Z,1007.14
2023-04-02T02:12:43.735Z,1007.10
2023-04-02T02:13:43.728Z,1007.13
2023-04-02T02:14:43.734Z,1007.12
2023-04-02T02:15:43.721Z,1007.14
2023-04-02T02:16:43.742Z,1007.16
2023-04-02T02:17:43.711Z,1007.15
2023-04-02T02:18:43.687Z,1007.18
2023-04-02T02:19:43.770Z,1007.20
2023-04-02T02:20:43.708Z,1007.23
2023-04-02T02:21:43.688Z,1007.24
2023-04-02T02:22:43.735Z,1007.28
2023-04-02T02:23:43.636Z,1007.25
2023-04-02T02:24:43.672Z,1007.31
2023-04-02T02:25:43.621Z,1007.33
2023-04-02T02:26:43.715Z,1007.41
2023-04-02T02:27:43.623Z,1007.42
2023-04-02T02:28:43.632Z,1007.42
2023-04-02T02:29:43.553Z,1007.43
2023-04-02T02:30:43.670Z,1007.44
2023-04-02T02:31:43.602Z,1007.47
2023-04-02T02:32:43.621Z,1007.52
2023-04-02T02:33:43.526Z,1007.53
2023-04-02T02:34:43.542Z,1007.58
2023-04-02T02:35:43.567Z,1007.64
2023-04-02T02:36:43.521Z,1007.64
2023-04-02T02:37:43.595Z,1007.69
2023-04-02T02:38:43.519Z,1007.64
2023-04-02T02:39:43.483Z,1007.70
2023-04-02T02:40:43.556Z,1007.69
2023-04-02T02:41:43.478Z,1007.71
2023-04-02T02:42:43.451Z,1007.76
2023-04-02T02:43:43.430Z,1007.77
2023-04-02T02:44:43.468Z,1007.79
2023-04-02T02:45:43.449Z,1007.81
2023-04-02T02:46:43.462Z,1007.82
2023-04-02T02:47:43.520Z,1007.85
2023-04-02T02:48:43.415Z,1007.85
2023-04-02T02:49:43.373Z,1007.91
2023-04-02T02:50:43.380Z,1007.92
2023-04-02T02:51:43.388Z,1007.90
2023-04-02T02:52:43.339Z,1007.93
2023-04-02T02:53:43.331Z,1007.90
2023-04-02T02:54:43.360Z,1007.96
2023-04-02T02:55:43.516Z,1007.97
2023-04-02T02:56:43.351Z,1007.97
2023-04-02T02:57:43.286Z,1007.99
2023-04-02T02:58:43.312Z,1008.00
2023-04-02T02:59:43.305Z,1008.08
2023-04-02T03:00:43.252Z,1008.11
2023-04-02T03:02:04.270Z,1008.06
2023-04-02T03:02:43.396Z,1008.12
2023-04-02T03:03:43.424Z,1008.12
2023-04-02T03:04:43.223Z,1008.14
2023-04-02T03:05:43.247Z,1008.16
2023-04-02T03:06:43.246Z,1008.20
2023-04-02T03:07:43.217Z,1008.19
2023-04-02T03:08:43.227Z,1008.22
2023-04-02T03:09:43.215Z,1008.26
2023-04-02T03:10:43.142Z,1008.27
2023-04-02T03:11:43.145Z,1008.22
2023-04-02T03:12:43.177Z,1008.29
2023-04-02T03:13:43.146Z,1008.27
2023-04-02T03:14:43.109Z,1008.27
2023-04-02T03:15:43.156Z,1008.28
2023-04-02T03:16:43.133Z,1008.32
2023-04-02T03:17:43.144Z,1008.36
2023-04-02T03:18:43.118Z,1008.45
2023-04-02T03:19:43.071Z,1008.39
2023-04-02T03:20:43.109Z,1008.49
2023-04-02T03:21:43.079Z,1008.45
2023-04-02T03:22:43.052Z,1008.46
2023-04-02T03:23:43.149Z,1008.51
2023-04-02T03:24:43.041Z,1008.52
2023-04-02T03:25:43.037Z,1008.53
2023-04-02T03:26:43.032Z,1008.55
2023-04-02T03:27:42.989Z,1008.58
2023-04-02T03:28:43.010Z,1008.57
2023-04-02T03:29:42.942Z,1008.64
2023-04-02T03:30:42.997Z,1008.63
2023-04-02T03:31:42.990Z,1008.73
2023-04-02T03:32:42.938Z,1008.70
2023-04-02T03:33:43.005Z,1008.73
2023-04-02T03:34:42.973Z,1008.76
2023-04-02T03:35:42.964Z,1008.78
2023-04-02T03:36:42.912Z,1008.80
2023-04-02T03:37:42.893Z,1008.81
2023-04-02T03:38:42.883Z,1008.88
2023-04-02T03:39:42.930Z,1008.88
2023-04-02T03:40:42.879Z,1008.95
2023-04-02T03:41:42.845Z,1008.94
2023-04-02T03:42:42.843Z,1008.98
2023-04-02T03:43:42.852Z,1009.01
2023-04-02T03:44:42.835Z,1008.98
2023-04-02T03:45:42.868Z,1009.02
2023-04-02T03:46:42.876Z,1009.10
2023-04-02T03:47:42.858Z,1009.09
2023-04-02T03:48:42.795Z,1009.12
2023-04-02T03:49:42.800Z,1009.13
2023-04-02T03:50:42.779Z,1009.19
2023-04-02T03:51:42.776Z,1009.15
2023-04-02T03:52:42.782Z,1009.20
2023-04-02T03:53:42.764Z,1009.25
2023-04-02T03:54:53.822Z,1009.24
2023-04-02T03:55:42.702Z,1009.30
2023-04-02T03:56:42.757Z,1009.35
2023-04-02T03:57:42.716Z,1009.35
2023-04-02T03:58:42.681Z,1009.36
2023-04-02T03:59:42.683Z,1009.42
2023-04-02T04:00:42.675Z,1009.43
2023-04-02T04:01:42.700Z,1009.46
2023-04-02T04:02:42.730Z,1009.45
2023-04-02T04:03:42.656Z,1009.51
2023-04-02T04:04:42.630Z,1009.54
2023-04-02T04:05:42.621Z,1009.55
2023-04-02T04:06:42.706Z,1009.53
2023-04-02T04:07:42.734Z,1009.59
2023-04-02T04:08:42.579Z,1009.59
2023-04-02T04:09:42.650Z,1009.63
2023-04-02T04:10:43.580Z,1009.66
2023-04-02T04:11:42.575Z,1009.68
2023-04-02T04:12:42.538Z,1009.72
2023-04-02T04:13:42.570Z,1009.73
2023-04-02T04:14:44.051Z,1009.74
2023-04-02T04:15:42.552Z,1009.78
2023-04-02T04:16:42.550Z,1009.76
2023-04-02T04:17:42.530Z,1009.85
2023-04-02T04:18:42.513Z,1009.85
2023-04-02T04:19:42.433Z,1009.84
2023-04-02T04:20:42.512Z,1009.87
2023-04-02T04:21:42.450Z,1009.88
2023-04-02T04:22:42.446Z,1009.93
2023-04-02T04:23:42.461Z,1009.92
2023-04-02T04:24:42.416Z,1009.94
2023-04-02T04:25:42.449Z,1009.97
2023-04-02T04:26:42.404Z,1009.94
2023-04-02T04:27:42.640Z,1010.01
2023-04-02T04:28:42.413Z,1010.03
2023-04-02T04:29:42.324Z,1010.06
2023-04-02T04:30:42.409Z,1010.04
2023-04-02T04:31:42.340Z,1010.13
2023-04-02T04:32:42.356Z,1010.15
2023-04-02T04:33:42.588Z,1010.19
2023-04-02T04:34:42.357Z,1010.20
2023-04-02T04:35:42.338Z,1010.20
2023-04-02T04:36:42.309Z,1010.26
2023-04-02T04:37:43.327Z,1010.23
2023-04-02T04:38:42.453Z,1010.28
2023-04-02T04:39:42.253Z,1010.31
2023-04-02T04:40:42.221Z,1010.31
2023-04-02T04:41:42.221Z,1010.34
2023-04-02T04:42:42.334Z,1010.37
2023-04-02T04:43:42.152Z,1010.33
2023-04-02T04:44:42.148Z,1010.31
2023-04-02T04:45:42.274Z,1010.37
2023-04-02T04:46:42.179Z,1010.36
2023-04-02T04:47:42.229Z,1010.41
2023-04-02T04:48:42.135Z,1010.44
2023-04-02T04:49:42.153Z,1010.40
2023-04-02T04:50:42.077Z,1010.44
2023-04-02T04:51:42.115Z,1010.49
2023-04-02T04:52:42.072Z,1010.51
2023-04-02T04:53:42.352Z,1010.54
2023-04-02T04:54:42.044Z,1010.56
2023-04-02T04:55:42.063Z,1010.58
2023-04-02T04:56:42.066Z,1010.59
2023-04-02T04:57:42.288Z,1010.60
2023-04-02T04:58:42.022Z,1010.64
2023-04-02T04:59:42.084Z,1010.66
2023-04-02T05:00:41.994Z,1010.73
2023-04-02T05:01:42.721Z,1010.72
2023-04-02T05:02:42.041Z,1010.74
2023-04-02T05:03:41.943Z,1010.76
2023-04-02T05:04:42.042Z,1010.84
2023-04-02T05:05:42.016Z,1010.85
2023-04-02T05:06:41.975Z,1010.85
2023-04-02T05:07:41.980Z,1010.92
2023-04-02T05:08:41.948Z,1010.94
2023-04-02T05:09:41.910Z,1010.96
2023-04-02T05:10:41.871Z,1010.99
2023-04-02T05:11:41.886Z,1011.07
2023-04-02T05:12:41.887Z,1011.07
2023-04-02T05:13:41.918Z,1011.10
2023-04-02T05:14:41.889Z,1011.15
2023-04-02T05:15:42.060Z,1011.12
2023-04-02T05:16:41.819Z,1011.18
2023-04-02T05:17:41.860Z,1011.19
2023-04-02T05:18:41.788Z,1011.24
2023-04-02T05:19:41.825Z,1011.28
2023-04-02T05:20:41.763Z,1011.30
2023-04-02T05:21:41.835Z,1011.33
2023-04-02T05:22:41.768Z,1011.36
2023-04-02T05:23:41.756Z,1011.35
2023-04-02T05:24:41.766Z,1011.35
2023-04-02T05:25:41.715Z,1011.36
2023-04-02T05:26:41.702Z,1011.36
2023-04-02T05:27:41.764Z,1011.37
2023-04-02T05:28:41.717Z,1011.44
2023-04-02T05:29:41.779Z,1011.40
2023-04-02T05:30:41.738Z,1011.44
2023-04-02T05:31:41.700Z,1011.45
2023-04-02T05:32:41.703Z,1011.44
2023-04-02T05:33:41.659Z,1011.49
2023-04-02T05:34:41.641Z,1011.50
2023-04-02T05:35:41.648Z,1011.51
2023-04-02T05:36:41.609Z,1011.55
2023-04-02T05:37:41.676Z,1011.54
2023-04-02T05:38:41.590Z,1011.57
2023-04-02T05:39:41.575Z,1011.61
2023-04-02T05:40:41.590Z,1011.64
2023-04-02T05:41:41.556Z,1011.67
2023-04-02T05:42:41.583Z,1011.70
2023-04-02T05:43:41.541Z,1011.66
2023-04-02T05:44:41.579Z,1011.70
2023-04-02T05:45:41.524Z,1011.72
2023-04-02T05:46:41.606Z,1011.73
2023-04-02T05:47:41.527Z,1011.77
2023-04-02T05:48:41.491Z,1011.75
2023-04-02T05:49:41.468Z,1011.78
2023-04-02T05:50:41.524Z,1011.79
2023-04-02T05:51:41.546Z,1011.85
2023-04-02T05:52:41.508Z,1011.85
2023-04-02T05:53:41.472Z,1011.87
2023-04-02T05:54:41.496Z,1011.91
2023-04-02T05:55:41.436Z,1011.93
2023-04-02T05:56:41.439Z,1011.96
2023-04-02T05:57:46.882Z,1011.95
2023-04-02T05:58:42.628Z,1011.97
2023-04-02T05:59:41.332Z,1011.99
2023-04-02T06:00:41.490Z,1012.02
2023-04-02T06:01:41.353Z,1012.05
2023-04-02T06:02:41.509Z,1012.07
2023-04-02T06:03:41.345Z,1012.08
2023-04-02T06:04:41.461Z,1012.14
2023-04-02T06:05:41.356Z,1012.16
2023-04-02T06:06:41.301Z,1012.20
2023-04-02T06:07:41.316Z,1012.23
2023-04-02T06:08:41.261Z,1012.24
2023-04-02T06:09:41.255Z,1012.26
2023-04-02T06:10:41.242Z,1012.27
2023-04-02T06:11:41.256Z,1012.30
2023-04-02T06:12:41.266Z,1012.32
2023-04-02T06:13:41.255Z,1012.37
2023-04-02T06:14:41.207Z,1012.42
2023-04-02T06:15:41.198Z,1012.44
2023-04-02T06:16:41.217Z,1012.48
2023-04-02T06:17:41.266Z,1012.49
2023-04-02T06:18:41.201Z,1012.55
2023-04-02T06:19:41.191Z,1012.57
2023-04-02T06:20:41.175Z,1012.58
2023-04-02T06:21:41.132Z,1012.61
2023-04-02T06:22:41.113Z,1012.64
2023-04-02T06:23:41.127Z,1012.69
2023-04-02T06:24:41.125Z,1012.70
2023-04-02T06:25:41.174Z,1012.74
2023-04-02T06:26:41.116Z,1012.75
2023-04-02T06:27:41.087Z,1012.78
2023-04-02T06:28:41.112Z,1012.78
2023-04-02T06:29:41.067Z,1012.83
2023-04-02T06:30:41.120Z,1012.82
2023-04-02T06:31:41.064Z,1012.86
2023-04-02T06:32:41.072Z,1012.90
2023-04-02T06:33:41.048Z,1012.87
2023-04-02T06:34:41.058Z,1012.94
2023-04-02T06:35:41.105Z,1012.94
2023-04-02T06:36:40.978Z,1012.94
2023-04-02T06:37:40.976Z,1012.99
2023-04-02T06:38:40.999Z,1012.98
2023-04-02T06:39:40.981Z,1013.01
2023-04-02T06:40:40.935Z,1012.98
2023-04-02T06:41:41.100Z,1013.03
2023-04-02T06:42:40.966Z,1013.06
2023-04-02T06:43:40.947Z,1013.09
2023-04-02T06:44:40.923Z,1013.08
2023-04-02T06:45:40.931Z,1013.10
2023-04-02T06:46:40.886Z,1013.09
2023-04-02T06:47:40.952Z,1013.13
2023-04-02T06:48:40.897Z,1013.13
2023-04-02T06:49:41.038Z,1013.13
2023-04-02T06:50:40.876Z,1013.15
2023-04-02T06:51:40.878Z,1013.16
2023-04-02T06:52:40.814Z,1013.19
2023-04-02T06:53:40.850Z,1013.21
2023-04-02T06:54:40.817Z,1013.22
2023-04-02T06:55:40.815Z,1013.26
2023-04-02T06:56:40.822Z,1013.23
2023-04-02T06:57:42.545Z,1013.30
2023-04-02T06:58:41.187Z,1013.30
2023-04-02T06:59:40.772Z,1013.35
2023-04-02T07:00:40.762Z,1013.38
2023-04-02T07:01:40.881Z,1013.42
2023-04-02T07:02:40.832Z,1013.43
2023-04-02T07:03:40.739Z,1013.43
2023-04-02T07:04:40.697Z,1013.45
2023-04-02T07:05:42.977Z,1013.48
2023-04-02T07:06:40.749Z,1013.48
2023-04-02T07:07:40.653Z,1013.53
2023-04-02T07:08:40.767Z,1013.56
2023-04-02T07:09:40.672Z,1013.59
2023-04-02T07:10:40.641Z,1013.58
2023-04-02T07:11:40.658Z,1013.64
2023-04-02T07:12:40.711Z,1013.64
2023-04-02T07:13:40.647Z,1013.73
2023-04-02T07:14:40.630Z,1013.71
2023-04-02T07:15:40.656Z,1013.74
2023-04-02T07:16:40.586Z,1013.74
2023-04-02T07:17:40.571Z,1013.78
2023-04-02T07:18:40.566Z,1013.84
2023-04-02T07:19:40.587Z,1013.87
2023-04-02T07:20:40.560Z,1013.90
2023-04-02T07:21:40.524Z,1013.91
2023-04-02T07:22:40.534Z,1013.93
2023-04-02T07:23:40.503Z,1013.88
2023-04-02T07:24:40.680Z,1014.00
2023-04-02T07:25:40.623Z,1013.96
2023-04-02T07:26:40.520Z,1013.99
2023-04-02T07:27:40.510Z,1014.00
2023-04-02T07:28:40.445Z,1014.01
2023-04-02T07:29:40.472Z,1014.05
2023-04-02T07:30:40.534Z,1014.04
2023-04-02T07:31:40.430Z,1014.07
2023-04-02T07:32:40.433Z,1014.09
2023-04-02T07:33:42.143Z,1014.11
2023-04-02T07:34:40.377Z,1014.13
2023-04-02T07:35:40.411Z,1014.14
2023-04-02T07:36:40.419Z,1014.16
2023-04-02T07:37:40.403Z,1014.22
2023-04-02T07:38:40.381Z,1014.18
2023-04-02T07:39:40.829Z,1014.25
2023-04-02T07:40:40.350Z,1014.28
2023-04-02T07:41:40.311Z,1014.33
2023-04-02T07:42:40.381Z,1014.29
2023-04-02T07:43:40.344Z,1014.34
2023-04-02T07:44:40.283Z,1014.35
2023-04-02T07:45:40.357Z,1014.39
2023-04-02T07:46:40.337Z,1014.37
2023-04-02T07:47:40.398Z,1014.44
2023-04-02T07:48:40.245Z,1014.47
2023-04-02T07:49:40.249Z,1014.49
2023-04-02T07:50:40.240Z,1014.47
2023-04-02T07:51:40.204Z,1014.50
2023-04-02T07:52:40.630Z,1014.55
2023-04-02T07:53:40.358Z,1014.54
2023-04-02T07:54:40.213Z,1014.54
2023-04-02T07:55:40.692Z,1014.55
2023-04-02T07:56:40.241Z,1014.56
2023-04-02T07:57:40.167Z,1014.58
2023-04-02T07:58:40.177Z,1014.60
2023-04-02T07:59:40.147Z,1014.61
2023-04-02T08:00:40.130Z,1014.60
2023-04-02T08:01:40.205Z,1014.61
2023-04-02T08:02:40.196Z,1014.59
2023-04-02T08:03:40.169Z,1014.62
2023-04-02T08:04:40.150Z,1014.61
2023-04-02T08:05:40.093Z,1014.63
2023-04-02T08:06:40.140Z,1014.64
2023-04-02T08:07:40.043Z,1014.67
2023-04-02T08:08:40.088Z,1014.66
2023-04-02T08:09:40.050Z,1014.68
2023-04-02T08:10:40.017Z,1014.73
2023-04-02T08:11:40.010Z,1014.73
2023-04-02T08:12:40.045Z,1014.75
2023-04-02T08:13:40.063Z,1014.76
2023-04-02T08:14:39.974Z,1014.85
2023-04-02T08:15:39.993Z,1014.86
2023-04-02T08:16:40.000Z,1014.87
2023-04-02T08:17:40.014Z,1014.91
2023-04-02T08:18:39.940Z,1014.95
2023-04-02T08:19:51.969Z,1014.93
2023-04-02T08:20:39.938Z,1014.93
2023-04-02T08:21:39.972Z,1015.02
2023-04-02T08:22:39.900Z,1015.03
2023-04-02T08:23:39.883Z,1015.04
2023-04-02T08:24:39.880Z,1015.11
2023-04-02T08:25:39.872Z,1015.12
2023-04-02T08:26:39.877Z,1015.16
2023-04-02T08:27:39.909Z,1015.18
2023-04-02T08:28:39.890Z,1015.18
2023-04-02T08:29:39.910Z,1015.24
2023-04-02T08:30:39.822Z,1015.24
2023-04-02T08:31:39.847Z,1015.28
2023-04-02T08:32:39.826Z,1015.31
2023-04-02T08:33:39.779Z,1015.34
2023-04-02T08:34:39.815Z,1015.36
2023-04-02T08:35:40.150Z,1015.37
2023-04-02T08:36:39.756Z,1015.42
2023-04-02T08:37:39.720Z,1015.40
2023-04-02T08:38:39.798Z,1015.42
2023-04-02T08:39:39.720Z,1015.45
2023-04-02T08:40:39.739Z,1015.45
2023-04-02T08:41:39.808Z,1015.45
2023-04-02T08:42:39.662Z,1015.43
2023-04-02T08:43:39.659Z,1015.46
2023-04-02T08:44:39.704Z,1015.47
2023-04-02T08:45:39.843Z,1015.50
2023-04-02T08:46:39.716Z,1015.49
2023-04-02T08:47:39.671Z,1015.52
2023-04-02T08:48:42.067Z,1015.56
2023-04-02T08:49:39.663Z,1015.52
2023-04-02T08:50:39.620Z,1015.53
2023-04-02T08:51:39.633Z,1015.57
2023-04-02T08:52:39.618Z,1015.58
2023-04-02T08:53:39.639Z,1015.58
2023-04-02T08:54:39.627Z,1015.61
2023-04-02T08:55:39.558Z,1015.63
2023-04-02T08:56:39.587Z,1015.67
2023-04-02T08:57:39.607Z,1015.68
2023-04-02T08:58:39.573Z,1015.71
2023-04-02T08:59:39.537Z,1015.74
2023-04-02T09:00:39.509Z,1015.72
2023-04-02T09:01:39.565Z,1015.75
2023-04-02T09:02:39.526Z,1015.80
2023-04-02T09:03:39.518Z,1015.76
2023-04-02T09:04:39.484Z,1015.80
2023-04-02T09:05:39.480Z,1015.79
2023-04-02T09:06:39.410Z,1015.81
2023-04-02T09:07:39.479Z,1015.81
2023-04-02T09:08:39.483Z,1015.86
2023-04-02T09:09:39.395Z,1015.88
2023-04-02T09:10:39.492Z,1015.90
2023-04-02T09:11:39.442Z,1015.93
2023-04-02T09:12:40.640Z,1015.94
2023-04-02T09:13:39.423Z,1015.98
2023-04-02T09:14:39.345Z,1015.98
2023-04-02T09:15:39.521Z,1015.99
2023-04-02T09:16:39.406Z,1016.00
2023-04-02T09:17:50.407Z,1016.05
2023-04-02T09:18:39.461Z,1016.05
2023-04-02T09:19:39.350Z,1016.08
2023-04-02T09:20:39.386Z,1016.09
2023-04-02T09:21:39.384Z,1016.10
2023-04-02T09:22:39.361Z,1016.12
2023-04-02T09:23:39.291Z,1016.14
2023-04-02T09:24:39.289Z,1016.15
2023-04-02T09:25:39.302Z,1016.22
2023-04-02T09:26:39.444Z,1016.17
2023-04-02T09:27:39.327Z,1016.23
2023-04-02T09:28:39.272Z,1016.25
2023-04-02T09:29:39.333Z,1016.29
2023-04-02T09:30:39.299Z,1016.28
2023-04-02T09:31:39.367Z,1016.29
2023-04-02T09:32:39.215Z,1016.35
2023-04-02T09:33:39.264Z,1016.34
2023-04-02T09:34:39.195Z,1016.35
2023-04-02T09:35:39.286Z,1016.36
2023-04-02T09:36:39.184Z,1016.38
2023-04-02T09:37:39.205Z,1016.36
2023-04-02T09:38:39.131Z,1016.41
2023-04-02T09:39:39.142Z,1016.40
2023-04-02T09:40:39.164Z,1016.44
2023-04-02T09:41:39.158Z,1016.48
2023-04-02T09:42:39.364Z,1016.46
2023-04-02T09:43:39.116Z,1016.49
2023-04-02T09:44:39.286Z,1016.51
2023-04-02T09:45:39.148Z,1016.54
2023-04-02T09:46:39.174Z,1016.55
2023-04-02T09:47:40.265Z,1016.57
2023-04-02T09:48:39.196Z,1016.57
2023-04-02T09:49:39.171Z,1016.59
2023-04-02T09:50:39.278Z,1016.62
2023-04-02T09:51:39.069Z,1016.64
2023-04-02T09:52:39.028Z,1016.69
2023-04-02T09:53:41.134Z,1016.69
2023-04-02T09:54:39.140Z,1016.67
2023-04-02T09:55:39.068Z,1016.75
2023-04-02T09:56:39.088Z,1016.73
2023-04-02T09:57:39.028Z,1016.81
2023-04-02T09:58:38.908Z,1016.80
2023-04-02T09:59:39.040Z,1016.83
2023-04-02T10:00:38.987Z,1016.84
2023-04-02T10:01:39.009Z,1016.92
2023-04-02T10:02:38.983Z,1016.91
2023-04-02T10:03:38.907Z,1016.92
2023-04-02T10:04:39.082Z,1016.93
2023-04-02T10:05:40.938Z,1016.93
2023-04-02T10:06:38.894Z,1016.95
2023-04-02T10:07:38.844Z,1016.98
2023-04-02T10:08:38.828Z,1016.97
2023-04-02T10:09:39.025Z,1017.01
2023-04-02T10:10:38.791Z,1017.04
2023-04-02T10:11:46.432Z,1017.08
2023-04-02T10:12:38.825Z,1017.11
2023-04-02T10:13:38.952Z,1017.12
2023-04-02T10:14:38.875Z,1017.12
2023-04-02T10:15:38.772Z,1017.12
2023-04-02T10:16:39.202Z,1017.17
2023-04-02T10:17:38.803Z,1017.13
2023-04-02T10:18:39.861Z,1017.15
2023-04-02T10:19:38.778Z,1017.14
2023-04-02T10:20:48.588Z,1017.15
2023-04-02T10:21:38.771Z,1017.16
2023-04-02T10:22:38.732Z,1017.13
2023-04-02T10:23:38.743Z,1017.16
2023-04-02T10:24:38.779Z,1017.20
2023-04-02T10:25:38.819Z,1017.19
2023-04-02T10:26:38.732Z,1017.21
2023-04-02T10:27:38.725Z,1017.24
2023-04-02T10:28:38.638Z,1017.26
2023-04-02T10:29:38.686Z,1017.28
2023-04-02T10:30:38.868Z,1017.30
2023-04-02T10:31:39.054Z,1017.36
2023-04-02T10:32:38.701Z,1017.34
2023-04-02T10:33:38.610Z,1017.37
2023-04-02T10:34:39.073Z,1017.38
2023-04-02T10:35:38.826Z,1017.39
2023-04-02T10:36:38.564Z,1017.44
2023-04-02T10:37:38.579Z,1017.41
2023-04-02T10:38:38.592Z,1017.49
2023-04-02T10:39:39.265Z,1017.45
2023-04-02T10:40:38.860Z,1017.43
2023-04-02T10:41:38.579Z,1017.42
2023-04-02T10:42:38.569Z,1017.42
2023-04-02T10:43:38.552Z,1017.39
2023-04-02T10:44:38.945Z,1017.39
2023-04-02T10:45:38.701Z,1017.41
2023-04-02T10:46:38.581Z,1017.45
2023-04-02T10:47:38.520Z,1017.40
2023-04-02T10:48:38.463Z,1017.46
2023-04-02T10:49:38.452Z,1017.47
2023-04-02T10:50:38.416Z,1017.49
2023-04-02T10:51:38.565Z,1017.53
2023-04-02T10:52:38.487Z,1017.53
2023-04-02T10:53:38.404Z,1017.57
2023-04-02T10:54:38.475Z,1017.60
2023-04-02T10:55:38.423Z,1017.63
2023-04-02T10:56:50.071Z,1017.66
2023-04-02T10:57:38.446Z,1017.69
2023-04-02T10:58:38.345Z,1017.73
2023-04-02T10:59:38.291Z,1017.74
2023-04-02T11:00:38.310Z,1017.73
2023-04-02T11:01:38.375Z,1017.77
2023-04-02T11:02:38.327Z,1017.79
2023-04-02T11:03:38.496Z,1017.80
2023-04-02T11:04:38.332Z,1017.81
2023-04-02T11:05:38.314Z,1017.85
2023-04-02T11:06:38.257Z,1017.85
2023-04-02T11:07:38.331Z,1017.86
2023-04-02T11:08:38.216Z,1017.92
2023-04-02T11:09:38.372Z,1017.91
2023-04-02T11:10:38.250Z,1017.94
2023-04-02T11:11:38.323Z,1017.96
2023-04-02T11:12:41.566Z,1018.00
2023-04-02T11:13:38.351Z,1018.00
2023-04-02T11:14:38.236Z,1018.02
2023-04-02T11:15:38.176Z,1018.03
2023-04-02T11:16:41.751Z,1018.08
2023-04-02T11:17:38.193Z,1018.07
2023-04-02T11:18:38.151Z,1018.08
2023-04-02T11:19:38.194Z,1018.05
2023-04-02T11:20:38.115Z,1018.05
2023-04-02T11:21:44.813Z,1018.09
2023-04-02T11:22:38.213Z,1018.05
2023-04-02T11:23:38.065Z,1018.12
2023-04-02T11:24:38.090Z,1018.14
2023-04-02T11:25:38.091Z,1018.19
2023-04-02T11:26:38.159Z,1018.23
2023-04-02T11:27:38.222Z,1018.26
2023-04-02T11:28:38.065Z,1018.25
2023-04-02T11:29:38.036Z,1018.29
2023-04-02T11:30:38.106Z,1018.31
2023-04-02T11:31:38.107Z,1018.32
2023-04-02T11:32:37.995Z,1018.30
2023-04-02T11:33:40.679Z,1018.32
2023-04-02T11:34:37.981Z,1018.33
2023-04-02T11:35:38.317Z,1018.31
2023-04-02T11:36:38.016Z,1018.30
2023-04-02T11:37:38.432Z,1018.30
2023-04-02T11:38:37.971Z,1018.32
2023-04-02T11:39:37.936Z,1018.33
2023-04-02T11:40:38.006Z,1018.31
2023-04-02T11:41:37.960Z,1018.33
2023-04-02T11:42:38.019Z,1018.33
2023-04-02T11:43:37.946Z,1018.28
2023-04-02T11:44:38.631Z,1018.28
2023-04-02T11:45:50.069Z,1018.28
2023-04-02T11:46:38.001Z,1018.28
2023-04-02T11:47:37.875Z,1018.29
2023-04-02T11:48:37.883Z,1018.33
2023-04-02T11:49:37.889Z,1018.34
2023-04-02T11:50:37.911Z,1018.36
2023-04-02T11:51:37.794Z,1018.38
2023-04-02T11:52:37.818Z,1018.35
2023-04-02T11:53:37.793Z,1018.41
2023-04-02T11:54:37.757Z,1018.43
2023-04-02T11:55:38.209Z,1018.46
2023-04-02T11:56:37.716Z,1018.46
2023-04-02T11:57:37.907Z,1018.54
2023-04-02T11:58:37.754Z,1018.57
2023-04-02T11:59:37.713Z,1018.57
2023-04-02T12:00:37.927Z,1018.54
2023-04-02T12:01:37.874Z,1018.55
2023-04-02T12:02:37.823Z,1018.60
2023-04-02T12:03:37.650Z,1018.59
2023-04-02T12:04:37.709Z,1018.59
2023-04-02T12:05:37.942Z,1018.57